Etusivu
METAR-TAF:

METAR-TAF

Lentoasemat :

Sierra Blanca Regional Airport

Ruidoso, New Mexico, Yhdysvallat

Leveyspiiri: 33-28N, Pituuspiiri: 105-32W, korkeus merenpinnasta: 2076 m

Tämänhetkinen sää

Tämä raportti tehtiin 17 minuuttia sitten, kello 20.15 UTC
Tuuli 16 kn lännestä/luoteesta puuskistuen 28 kn:hen
Lämpötila 5°C
Kosteus 52%
Ilmanpaine 1015 hPa
Näkyvyys: 16.1 km
Muutamia pilviä 4800 ft:n korkeudessa
Hajanaisia pilviä 6500 ft:n korkeudessa
Hajonneita pilviä 7000 ft:n korkeudessa
heikkoa sadetta

METAR: KSRR 232015Z AUTO 30016G28KT 10SM -RA FEW048 SCT065 BKN070 05/M04 A2997 RMK AO2

Aika: 13:32 (20:32 UTC)


TAF: puuttuu

Säähavainnot ja -ennusteet yli 4000 lentoasemalta (METAR- ja TAF-raportit).

Käytössä olevat sääasemat on merkitty karttaan keltaisilla ja punaisilla pisteillä.

Aseta hiiri pisteen päälle nähdäksesi sääaseman nimen.

Klikkaa sitten nähdäksesi säähavainnot ja -ennusteet.

Kartan vaihtaminen: klikkaa mustalla rastilla varustettuja vihreitä pisteitä, niin voit zoomata sisään; viivalla varustettua vihreää pistettä, niin voit zoomata ulos tai vihreitä nuolia, niin pääset viereisille kartoille.


METAR-TAF: